Time;durP1;ratioP1;P1;durP2;ratioP2;P2;SDS_P1;SDS_P2;PMS_P1;PMS_P2;Temp;Humidity;BMP_temperature;BMP_pressure;BME280_temperature;BME280_humidity;BME280_pressure;Samples;Min_cycle;Max_cycle;Signal;HPM_P1;HPM_P2
2022/01/16 00:07:13;;;;;;;6.03;5.43;;;;;;;18.64;49.17;97353.69;10451512;28;20079;-21
2022/01/16 00:12:18;;;;;;;5.28;4.63;;;;;;;18.63;49.31;97360.47;10451855;28;20376;-22
2022/01/16 00:17:21;;;;;;;7.07;5.82;;;;;;;18.63;49.19;97360.47;10450815;28;20042;-22
2022/01/16 00:22:26;;;;;;;5.30;4.80;;;;;;;18.63;49.62;97330.03;10452683;28;20666;-22
2022/01/16 00:27:26;;;;;;;5.63;4.63;;;;;;;18.62;49.14;97317.34;10421364;28;20044;-22
2022/01/16 00:32:26;;;;;;;4.70;4.30;;;;;;;18.63;49.17;97334.25;10411296;28;20392;-21
2022/01/16 00:37:27;;;;;;;6.00;4.90;;;;;;;18.63;49.26;97331.72;10441967;28;20519;-22
2022/01/16 00:42:28;;;;;;;4.85;4.35;;;;;;;18.59;49.19;97312.25;10414600;28;20032;-22
2022/01/16 00:47:29;;;;;;;5.38;4.88;;;;;;;18.61;49.47;97346.06;10407842;28;20389;-22
2022/01/16 00:52:29;;;;;;;5.15;4.50;;;;;;;18.63;49.36;97319.03;10430932;28;20037;-22
2022/01/16 00:57:30;;;;;;;4.73;4.23;;;;;;;18.63;49.67;97319.03;10450280;28;20040;-22
2022/01/16 01:02:31;;;;;;;6.68;5.43;;;;;;;18.62;49.43;97312.25;10451313;28;20610;-21
2022/01/16 01:07:31;;;;;;;4.70;4.22;;;;;;;18.58;49.52;97320.69;10415313;28;20109;-21
2022/01/16 01:12:51;;;;;;;5.97;4.93;;;;;;;18.65;49.43;97323.28;10410299;28;20037;-22
2022/01/16 01:17:52;;;;;;;6.25;4.63;;;;;;;18.63;49.52;97242.94;10439162;28;20283;-21
2022/01/16 01:22:53;;;;;;;6.82;4.90;;;;;;;18.61;49.53;97234.50;10450333;28;20442;-22
2022/01/16 01:27:53;;;;;;;6.07;4.77;;;;;;;18.62;49.65;97215.91;10448649;28;20041;-21
2022/01/16 01:32:55;;;;;;;7.17;4.50;;;;;;;18.63;49.79;97286.06;10414359;28;20033;-22
2022/01/16 01:37:55;;;;;;;6.45;4.60;;;;;;;18.63;49.88;97293.66;10450254;28;20033;-21
2022/01/16 01:51:03;;;;;;;5.35;4.30;;;;;;;18.65;49.83;97322.44;10450115;28;20044;-22
2022/01/16 01:53:26;;;;;;;5.45;3.90;;;;;;;18.64;49.87;97320.72;10409627;28;20041;-21
2022/01/16 01:58:26;;;;;;;6.93;4.87;;;;;;;18.62;49.87;97343.56;10411400;28;20056;-21
2022/01/16 02:03:42;;;;;;;4.40;4.10;;;;;;;18.61;49.82;97361.28;10419844;28;20301;-21
2022/01/16 02:08:46;;;;;;;5.38;4.45;;;;;;;18.60;50.00;97380.72;10457382;28;20491;-22
2022/01/16 02:13:56;;;;;;;7.80;4.05;;;;;;;18.62;50.00;97363.84;10415933;28;20492;-21
2022/01/16 02:30:18;;;;;;;4.32;3.92;;;;;;;18.61;49.96;97335.94;10418427;28;20457;-21
2022/01/16 02:35:01;;;;;;;4.37;3.90;;;;;;;18.60;49.88;97346.91;10445185;28;20079;-22
2022/01/16 02:40:10;;;;;;;4.93;4.00;;;;;;;18.63;50.02;97324.09;10457696;28;20518;-21
2022/01/16 02:45:16;;;;;;;4.72;3.97;;;;;;;18.57;50.15;97324.06;10459234;28;20033;-21
2022/01/16 02:50:17;;;;;;;5.47;4.22;;;;;;;18.60;49.96;97317.31;10445142;28;20026;-22
2022/01/16 02:55:20;;;;;;;5.37;4.43;;;;;;;18.61;50.06;97297.88;10428378;28;20041;-21
2022/01/16 03:00:22;;;;;;;5.90;4.07;;;;;;;18.58;50.16;97301.25;10458314;28;20507;-21
2022/01/16 03:05:23;;;;;;;5.10;3.97;;;;;;;18.58;50.16;97297.88;10437290;28;20090;-22
2022/01/16 03:15:24;;;;;;;5.33;4.20;;;;;;;18.57;50.05;97269.13;10457830;28;20036;-21
2022/01/16 03:25:46;;;;;;;4.25;3.72;;;;;;;18.56;50.19;97277.56;10415062;28;20086;-22
2022/01/16 03:30:47;;;;;;;5.78;4.60;;;;;;;18.57;50.18;97269.13;10416695;28;20043;-22
2022/01/16 03:35:48;;;;;;;3.90;3.60;;;;;;;18.58;50.16;97247.16;10414175;28;20034;-22
2022/01/16 03:40:49;;;;;;;4.38;3.70;;;;;;;18.60;49.76;97253.09;10427728;28;20200;-21
2022/01/16 03:45:49;;;;;;;4.28;3.88;;;;;;;18.57;49.85;97258.97;10453911;28;20041;-22
2022/01/16 03:50:49;;;;;;;4.00;3.60;;;;;;;18.59;50.05;97254.75;10452483;28;20040;-22
2022/01/16 03:55:50;;;;;;;6.03;3.73;;;;;;;18.55;49.98;97247.09;10435599;28;20037;-21
2022/01/16 04:00:50;;;;;;;4.13;3.58;;;;;;;18.59;50.13;97237.00;10411846;28;20045;-23
2022/01/16 04:05:50;;;;;;;4.80;4.07;;;;;;;18.57;50.07;97264.03;10433397;28;20095;-22
2022/01/16 04:10:51;;;;;;;4.93;4.20;;;;;;;18.56;49.84;97246.28;10434899;28;20354;-22
2022/01/16 04:15:52;;;;;;;5.03;4.53;;;;;;;18.59;49.83;97253.91;10425586;28;20033;-21
2022/01/16 04:20:52;;;;;;;4.03;3.40;;;;;;;18.60;49.90;97253.91;10451906;28;20037;-21
2022/01/16 04:25:52;;;;;;;4.63;4.07;;;;;;;18.56;50.01;97266.56;10434166;28;20094;-21
2022/01/16 04:30:53;;;;;;;3.70;3.40;;;;;;;18.57;49.92;97268.28;10410173;28;20029;-22
2022/01/16 04:35:53;;;;;;;5.20;3.63;;;;;;;18.58;50.10;97283.50;10434969;28;20299;-22
2022/01/16 04:46:17;;;;;;;4.53;3.70;;;;;;;18.58;49.98;97280.13;10410358;28;20295;-21
2022/01/16 04:51:19;;;;;;;3.40;3.10;;;;;;;18.56;50.06;97291.91;10447355;28;20037;-22
2022/01/16 04:56:19;;;;;;;4.22;3.47;;;;;;;18.56;50.11;97286.84;10448923;28;20029;-21
2022/01/16 05:01:20;;;;;;;4.28;3.88;;;;;;;18.59;50.01;97292.78;10450776;28;20029;-22
2022/01/16 05:06:21;;;;;;;4.13;3.60;;;;;;;18.59;49.82;97302.09;10414721;28;20029;-22
2022/01/16 05:11:25;;;;;;;4.10;3.38;;;;;;;18.60;49.79;97309.69;10429689;28;20032;-21
2022/01/16 05:21:35;;;;;;;5.38;3.40;;;;;;;18.56;49.72;97305.47;10449165;28;20118;-21
2022/01/16 05:26:41;;;;;;;3.65;3.35;;;;;;;18.63;49.70;97324.09;10426637;28;20036;-22
2022/01/16 05:31:44;;;;;;;4.47;3.20;;;;;;;18.65;49.70;97338.50;10408849;28;20045;-21
2022/01/16 05:36:48;;;;;;;4.05;3.15;;;;;;;18.69;49.49;97362.22;10408718;28;20048;-22
2022/01/16 05:41:48;;;;;;;3.53;3.05;;;;;;;18.65;49.61;97368.06;10408213;28;20041;-21
2022/01/16 05:46:48;;;;;;;6.67;2.90;;;;;;;18.65;49.92;97384.16;10408632;28;20033;-21
2022/01/16 05:51:49;;;;;;;4.20;3.50;;;;;;;18.65;49.67;97380.75;10440182;28;20817;-22
2022/01/16 05:56:49;;;;;;;3.53;3.20;;;;;;;18.64;49.64;97381.59;10447995;28;20287;-21
2022/01/16 06:01:50;;;;;;;2.97;2.65;;;;;;;18.64;49.76;97386.66;10449875;28;20063;-22
2022/01/16 06:06:50;;;;;;;4.63;3.53;;;;;;;18.62;49.43;97401.03;10416369;28;20041;-21
2022/01/16 06:11:51;;;;;;;4.53;3.58;;;;;;;18.61;49.82;97396.78;10431525;28;20123;-21
2022/01/16 06:16:52;;;;;;;4.43;2.55;;;;;;;18.60;49.75;97407.78;10449645;28;20524;-22
2022/01/16 06:21:52;;;;;;;3.25;2.95;;;;;;;18.69;49.67;97416.34;10447554;28;20132;-22
2022/01/16 06:26:53;;;;;;;2.90;2.47;;;;;;;18.67;49.50;97423.06;10423473;28;20034;-21
2022/01/16 06:31:53;;;;;;;2.93;2.63;;;;;;;18.73;49.79;97424.81;10410803;28;20329;-21
2022/01/16 06:36:53;;;;;;;2.97;2.75;;;;;;;18.69;49.58;97421.41;10448870;28;20283;-22
2022/01/16 06:41:54;;;;;;;2.73;2.53;;;;;;;18.72;49.42;97425.66;10423176;28;20410;-22
2022/01/16 06:46:55;;;;;;;3.53;2.97;;;;;;;18.69;49.67;97421.41;10411320;28;20044;-22
2022/01/16 06:51:55;;;;;;;3.27;2.60;;;;;;;18.70;49.61;97424.78;10452353;28;20048;-22
2022/01/16 06:56:55;;;;;;;2.93;2.60;;;;;;;18.69;49.58;97421.41;10402419;28;20025;-23
2022/01/16 07:01:56;;;;;;;4.30;2.50;;;;;;;18.66;49.46;97423.91;10391877;28;20166;-21
2022/01/16 07:06:56;;;;;;;3.57;3.07;;;;;;;18.74;49.53;97426.53;10377412;28;20091;-21
2022/01/16 07:11:57;;;;;;;3.83;2.40;;;;;;;18.71;49.68;97423.94;10398453;28;20284;-22
2022/01/16 07:16:57;;;;;;;3.67;2.70;;;;;;;18.69;49.52;97434.09;10437033;28;20029;-22
2022/01/16 07:21:58;;;;;;;4.00;2.53;;;;;;;18.65;49.72;97444.16;10453360;28;20124;-21
2022/01/16 07:27:00;;;;;;;3.07;2.60;;;;;;;18.65;49.79;97447.56;10428413;28;20059;-22
2022/01/16 07:32:00;;;;;;;3.38;2.83;;;;;;;18.64;49.79;97442.47;10413402;28;20116;-21
2022/01/16 07:37:01;;;;;;;3.17;2.80;;;;;;;18.61;49.78;97452.59;10413114;28;20522;-22
2022/01/16 07:42:01;;;;;;;4.90;2.60;;;;;;;18.56;49.79;97454.22;10410839;28;20306;-21
2022/01/16 07:47:03;;;;;;;3.50;2.45;;;;;;;18.53;50.14;97465.19;10397250;28;20374;-22
2022/01/16 07:52:04;;;;;;;2.63;2.40;;;;;;;18.53;50.39;97467.72;10406733;28;20037;-22
2022/01/16 07:57:04;;;;;;;3.22;2.53;;;;;;;18.56;50.47;97474.50;10403332;28;20037;-22
2022/01/16 08:02:05;;;;;;;4.88;3.15;;;;;;;18.52;51.07;97478.72;10406439;28;20029;-22
2022/01/16 08:07:09;;;;;;;3.30;2.55;;;;;;;18.48;51.56;97481.16;10412826;28;20552;-21
2022/01/16 08:12:11;;;;;;;3.80;3.08;;;;;;;18.49;51.59;97482.91;10405965;28;20033;-21
2022/01/16 08:17:11;;;;;;;5.32;2.63;;;;;;;18.50;51.55;97495.56;10412982;28;20036;-22
2022/01/16 08:22:12;;;;;;;6.15;3.03;;;;;;;18.49;51.57;97504.00;10405872;28;20025;-22
2022/01/16 08:27:13;;;;;;;2.92;2.60;;;;;;;18.48;51.41;97516.66;10404793;28;20041;-22
2022/01/16 08:32:14;;;;;;;6.78;2.47;;;;;;;18.49;51.34;97520.94;10404952;28;20124;-24
2022/01/16 08:37:14;;;;;;;7.80;4.15;;;;;;;18.48;50.99;97530.22;10404423;28;20139;-22
2022/01/16 08:42:15;;;;;;;4.15;3.03;;;;;;;18.49;50.82;97543.75;10402471;28;20148;-22
2022/01/16 08:47:16;;;;;;;4.65;3.10;;;;;;;18.54;50.59;97529.44;10404105;28;20384;-22
2022/01/16 08:52:18;;;;;;;3.90;2.97;;;;;;;18.50;50.73;97527.72;10401751;28;20064;-23
2022/01/16 08:57:19;;;;;;;3.30;3.00;;;;;;;18.55;50.42;97533.66;10432188;28;20509;-23
2022/01/16 09:02:20;;;;;;;3.75;2.72;;;;;;;18.57;50.23;97544.72;10441634;28;20032;-21
2022/01/16 09:07:20;;;;;;;6.40;3.72;;;;;;;18.54;50.11;97547.19;10393131;28;20748;-22
2022/01/16 09:12:20;;;;;;;9.15;5.70;;;;;;;18.34;47.51;97563.81;10396017;28;20041;-22
2022/01/16 09:17:21;;;;;;;8.70;5.72;;;;;;;18.51;49.37;97565.75;10434198;28;20029;-22
2022/01/16 09:22:22;;;;;;;7.43;5.38;;;;;;;18.55;49.12;97561.56;10450184;28;20094;-24
2022/01/16 09:27:22;;;;;;;6.03;4.88;;;;;;;18.54;49.38;97575.94;10420067;28;20057;-23
2022/01/16 09:32:25;;;;;;;7.68;4.55;;;;;;;18.52;49.30;97570.00;10409819;28;20099;-22
2022/01/16 09:37:26;;;;;;;6.50;4.25;;;;;;;18.54;49.48;97562.41;10449196;28;20036;-22
2022/01/16 09:42:27;;;;;;;7.60;4.53;;;;;;;18.51;49.49;97575.88;10419298;28;20399;-22
2022/01/16 09:47:28;;;;;;;5.85;4.40;;;;;;;18.54;49.53;97582.69;10411542;28;20040;-23
2022/01/16 09:52:28;;;;;;;5.55;4.45;;;;;;;18.56;49.77;97588.63;10441362;28;20037;-22
2022/01/16 09:57:29;;;;;;;7.67;5.10;;;;;;;18.59;49.61;97596.28;10443710;28;20060;-23
2022/01/16 10:02:29;;;;;;;12.77;6.23;;;;;;;18.61;49.86;97579.41;10408106;28;20776;-22
2022/01/16 10:07:40;;;;;;;11.10;6.30;;;;;;;18.65;50.07;97586.19;10442419;28;20309;-22
2022/01/16 10:12:47;;;;;;;9.95;5.90;;;;;;;18.59;48.81;97602.19;10416691;28;20295;-23
2022/01/16 10:17:50;;;;;;;11.00;8.98;;;;;;;18.49;47.95;97615.59;10400139;28;20029;-22
2022/01/16 10:23:00;;;;;;;9.93;8.38;;;;;;;18.37;47.30;97615.44;10405875;28;20045;-23
2022/01/16 10:28:11;;;;;;;11.15;7.93;;;;;;;18.52;47.61;97624.94;10415104;28;20061;-22
2022/01/16 10:33:19;;;;;;;10.27;7.72;;;;;;;18.54;47.91;97625.78;10435894;28;20040;-24
2022/01/16 10:38:30;;;;;;;9.82;7.85;;;;;;;18.50;48.10;97616.47;10417564;28;20080;-22
2022/01/16 10:43:42;;;;;;;10.40;7.65;;;;;;;18.52;48.17;97619.84;10412762;28;20057;-22
2022/01/16 10:48:42;;;;;;;11.40;7.50;;;;;;;18.55;48.39;97620.75;10421650;28;20230;-22
2022/01/16 10:53:43;;;;;;;10.98;7.25;;;;;;;18.59;48.18;97630.09;10382390;28;20531;-22
2022/01/16 10:58:43;;;;;;;10.93;8.13;;;;;;;18.60;48.09;97624.19;10405569;28;20017;-25
2022/01/16 11:03:48;;;;;;;8.63;6.47;;;;;;;18.63;48.21;97626.78;10406771;28;20374;-22
2022/01/16 11:08:57;;;;;;;9.25;6.03;;;;;;;18.61;48.29;97619.97;10420745;28;20041;-22
2022/01/16 11:14:03;;;;;;;7.82;6.43;;;;;;;18.63;48.38;97624.25;10376268;28;20038;-22
2022/01/16 11:19:06;;;;;;;;;;;;;;;18.64;48.88;97625.09;10385308;28;20034;-22
2022/01/16 11:24:28;;;;;;;9.23;7.30;;;;;;;18.61;49.21;97625.06;10406810;28;20113;-22
2022/01/16 11:29:29;;;;;;;13.43;8.48;;;;;;;18.61;49.59;97609.84;10408684;28;20131;-22
2022/01/16 11:34:30;;;;;;;17.02;9.02;;;;;;;18.60;50.38;97608.13;10419628;28;20063;-23
2022/01/16 11:39:37;;;;;;;10.97;7.53;;;;;;;18.59;50.48;97606.44;10406249;28;20486;-24
2022/01/16 11:44:37;;;;;;;14.85;8.82;;;;;;;18.62;50.76;97619.16;10389941;28;20318;-22
2022/01/16 11:49:41;;;;;;;17.33;9.77;;;;;;;18.60;51.28;97619.13;10384196;28;20586;-22
2022/01/16 11:54:47;;;;;;;13.45;8.65;;;;;;;18.62;51.69;97622.56;10411895;28;20079;-22
2022/01/16 11:59:50;;;;;;;16.33;9.05;;;;;;;18.39;43.92;97607.81;10412293;28;20104;-22
2022/01/16 12:04:57;;;;;;;14.80;8.32;;;;;;;18.46;50.11;97629.91;10407089;28;20036;-22
2022/01/16 12:09:57;;;;;;;;;;;;;;;18.56;50.48;97636.81;10417571;28;20079;-22
2022/01/16 12:15:22;;;;;;;11.65;8.15;;;;;;;18.62;50.27;97636.91;10453582;28;19943;-22
2022/01/16 12:20:26;;;;;;;9.25;7.30;;;;;;;18.62;50.12;97641.97;10450933;28;20063;-22
2022/01/16 12:25:31;;;;;;;9.52;7.20;;;;;;;18.61;50.39;97640.28;10450772;28;20132;-23
2022/01/16 12:30:44;;;;;;;11.02;6.60;;;;;;;18.61;50.73;97645.34;10433729;28;20103;-22
2022/01/16 12:35:46;;;;;;;9.43;6.45;;;;;;;18.57;50.70;97643.63;10410610;28;20419;-22
2022/01/16 12:40:53;;;;;;;9.23;6.63;;;;;;;18.61;50.11;97638.59;10424970;28;20051;-22
2022/01/16 12:45:54;;;;;;;8.73;7.13;;;;;;;18.61;50.79;97637.75;10450688;28;20041;-23
2022/01/16 12:51:05;;;;;;;8.57;6.10;;;;;;;18.58;49.90;97636.00;10417288;28;20124;-23
2022/01/16 12:56:21;;;;;;;9.27;6.68;;;;;;;18.61;50.29;97640.28;10425603;28;20028;-22
2022/01/16 13:01:22;;;;;;;9.45;7.15;;;;;;;18.63;50.20;97653.81;10451464;28;20146;-22
2022/01/16 13:06:27;;;;;;;8.30;6.47;;;;;;;18.60;50.49;97658.88;10449303;28;20043;-22
2022/01/16 13:11:34;;;;;;;8.93;6.32;;;;;;;18.59;50.69;97663.06;10428959;28;20061;-22
2022/01/16 13:16:38;;;;;;;8.18;5.97;;;;;;;18.60;51.13;97664.78;10429677;28;20044;-22
2022/01/16 13:22:11;;;;;;;13.20;6.75;;;;;;;18.61;49.73;97670.72;10433906;28;20067;-23
2022/01/16 13:27:32;;;;;;;11.35;5.82;;;;;;;18.66;51.25;97674.19;10434502;28;20033;-22
2022/01/16 13:32:40;;;;;;;11.15;7.20;;;;;;;18.66;51.94;97684.31;10416342;28;20041;-21
2022/01/16 13:37:41;;;;;;;10.13;6.25;;;;;;;18.62;52.92;97687.63;10439800;28;20036;-21
2022/01/16 13:48:10;;;;;;;9.88;6.03;;;;;;;18.59;52.68;97685.06;10448771;28;20332;-21
2022/01/16 13:53:14;;;;;;;10.13;6.50;;;;;;;18.56;53.79;97692.59;10398201;28;20514;-21
2022/01/16 13:58:17;;;;;;;13.88;6.30;;;;;;;18.58;54.09;97696.03;10418822;28;20098;-21
2022/01/16 14:03:24;;;;;;;10.48;6.25;;;;;;;18.57;54.71;97696.88;10416842;28;20530;-21
2022/01/16 14:08:27;;;;;;;10.95;5.68;;;;;;;18.59;54.71;97698.56;10443089;28;20512;-21
2022/01/16 14:13:30;;;;;;;10.77;6.03;;;;;;;18.58;54.37;97696.03;10420149;28;20666;-22
2022/01/16 14:19:38;;;;;;;20.08;6.88;;;;;;;18.59;53.81;97697.75;10422413;28;20025;-21
2022/01/16 14:24:07;;;;;;;11.23;6.25;;;;;;;18.66;53.84;97710.53;10454081;28;20055;-21
2022/01/16 14:29:08;;;;;;;12.88;7.13;;;;;;;18.62;51.02;97713.88;10394863;28;20037;-22
2022/01/16 14:34:11;;;;;;;10.10;7.00;;;;;;;18.45;53.49;97679.78;10418172;28;20035;-22
2022/01/16 14:39:15;;;;;;;12.15;6.80;;;;;;;18.62;53.15;97720.59;10419301;28;20200;-24
2022/01/16 14:44:21;;;;;;;8.82;6.47;;;;;;;18.62;52.57;97728.22;10392516;28;20041;-25
2022/01/16 14:49:22;;;;;;;11.15;6.55;;;;;;;18.66;52.08;97737.59;10377851;28;20122;-24
2022/01/16 14:54:22;;;;;;;14.88;8.15;;;;;;;18.66;52.17;97751.09;10386398;28;20037;-24
2022/01/16 14:59:23;;;;;;;15.50;7.75;;;;;;;18.65;51.74;97759.56;10395253;28;20144;-23
2022/01/16 15:04:23;;;;;;;13.65;6.85;;;;;;;18.63;52.17;97776.44;10388511;28;20037;-23
2022/01/16 15:09:23;;;;;;;22.77;6.10;;;;;;;18.68;51.90;97764.66;10376284;28;20033;-24
2022/01/16 15:14:24;;;;;;;13.33;6.23;;;;;;;18.70;51.88;97765.56;10382641;28;20129;-24
2022/01/16 15:19:31;;;;;;;8.73;5.70;;;;;;;18.65;52.10;97757.03;10402340;28;20682;-23
2022/01/16 15:24:31;;;;;;;8.15;5.28;;;;;;;18.62;51.75;97744.31;10422574;28;20037;-24
2022/01/16 15:29:32;;;;;;;8.63;5.73;;;;;;;18.68;51.55;97768.91;10425288;28;20512;-23
2022/01/16 15:34:32;;;;;;;6.80;5.20;;;;;;;18.65;51.34;97794.19;10412849;28;20046;-25
2022/01/16 15:39:33;;;;;;;12.03;8.07;;;;;;;18.21;45.76;97802.69;10416892;28;20087;-24
2022/01/16 15:44:34;;;;;;;9.82;6.38;;;;;;;18.47;50.51;97826.88;10451130;28;20036;-24
2022/01/16 15:49:35;;;;;;;9.98;6.05;;;;;;;18.55;50.85;97836.31;10429178;28;20044;-23
2022/01/16 15:54:36;;;;;;;12.05;6.60;;;;;;;18.57;51.04;97837.19;10433153;28;20086;-23
2022/01/16 15:59:36;;;;;;;13.57;6.97;;;;;;;18.58;50.90;97831.28;10453126;28;20045;-23
2022/01/16 16:04:37;;;;;;;13.93;6.50;;;;;;;18.58;50.93;97848.22;10451408;28;20423;-23
2022/01/16 16:09:37;;;;;;;11.03;6.40;;;;;;;18.56;51.13;97847.31;10446168;28;20457;-24
2022/01/16 16:14:39;;;;;;;10.98;6.57;;;;;;;18.61;51.13;97858.41;10411074;28;20299;-24
2022/01/16 16:19:39;;;;;;;9.75;6.35;;;;;;;18.60;51.12;97882.91;10434153;28;20071;-24
2022/01/16 16:24:41;;;;;;;10.35;6.47;;;;;;;18.60;51.39;97882.06;10420123;28;20111;-25
2022/01/16 16:29:43;;;;;;;9.30;6.00;;;;;;;18.52;51.37;97879.41;10388236;28;20456;-24
2022/01/16 16:34:44;;;;;;;11.20;7.05;;;;;;;18.59;51.56;97881.19;10423844;28;20128;-23
2022/01/16 16:39:45;;;;;;;12.17;7.47;;;;;;;18.61;51.59;97871.94;10443363;28;20037;-23
2022/01/16 16:44:47;;;;;;;11.98;7.43;;;;;;;18.63;51.73;97866.88;10410090;28;20315;-23
2022/01/16 16:49:48;;;;;;;12.75;7.30;;;;;;;18.66;51.71;97869.50;10424857;28;20098;-24
2022/01/16 16:54:48;;;;;;;9.30;6.27;;;;;;;18.64;51.65;97863.50;10443252;28;20036;-23
2022/01/16 16:59:49;;;;;;;13.40;8.15;;;;;;;18.69;51.77;97872.94;10410397;28;20033;-23
2022/01/16 17:04:49;;;;;;;8.65;6.78;;;;;;;18.67;51.53;97879.66;10416993;28;20516;-24
2022/01/16 17:09:50;;;;;;;9.67;7.10;;;;;;;18.64;51.73;97899.03;10414781;28;20052;-23
2022/01/16 17:14:50;;;;;;;14.02;8.10;;;;;;;18.65;52.33;97918.50;10444000;28;20043;-23
2022/01/16 17:19:50;;;;;;;13.90;8.30;;;;;;;18.66;52.16;97917.69;10417251;28;20043;-23
2022/01/16 17:24:55;;;;;;;11.98;7.72;;;;;;;18.63;52.31;97921.03;10448802;28;20037;-23
2022/01/16 17:29:56;;;;;;;12.52;7.68;;;;;;;18.61;52.24;97926.88;10449457;28;20037;-24
2022/01/16 17:34:56;;;;;;;12.30;7.15;;;;;;;18.63;51.95;97917.63;10436688;28;20032;-25
2022/01/16 17:39:57;;;;;;;12.40;9.40;;;;;;;18.64;52.65;97899.03;10436973;28;20033;-24
2022/01/16 17:44:57;;;;;;;19.27;10.30;;;;;;;18.63;53.04;97893.13;10408580;28;20158;-23
2022/01/16 17:49:58;;;;;;;15.20;10.37;;;;;;;18.63;53.15;97882.97;10404420;28;20300;-24
2022/01/16 17:54:58;;;;;;;23.73;11.30;;;;;;;18.65;53.22;97895.66;10380485;28;20045;-24
2022/01/16 17:59:59;;;;;;;16.07;10.43;;;;;;;18.65;52.90;97895.66;10376933;28;20412;-23
2022/01/16 18:04:59;;;;;;;17.30;10.20;;;;;;;18.70;53.03;97899.16;10376746;28;20052;-24
2022/01/16 18:10:00;;;;;;;20.00;12.10;;;;;;;18.76;44.50;97914.50;10416035;28;20036;-22
2022/01/16 18:15:00;;;;;;;13.15;9.45;;;;;;;18.79;44.25;97922.16;10410372;28;20554;-23
2022/01/16 18:20:01;;;;;;;18.73;13.02;;;;;;;18.81;41.35;97917.94;10408333;28;20401;-23
2022/01/16 18:25:02;;;;;;;17.65;11.52;;;;;;;18.71;41.18;97916.06;10406666;28;20037;-20
2022/01/16 18:30:03;;;;;;;14.25;9.50;;;;;;;18.67;48.27;97904.19;10415322;28;20117;-23
2022/01/16 18:35:07;;;;;;;12.40;9.90;;;;;;;18.69;49.04;97905.06;10408479;28;20048;-24
2022/01/16 18:40:09;;;;;;;10.00;7.93;;;;;;;18.70;49.42;97919.44;10428249;28;20033;-24
2022/01/16 18:45:11;;;;;;;10.98;7.28;;;;;;;18.68;49.84;97918.56;10438057;28;20043;-23
2022/01/16 18:50:13;;;;;;;10.23;7.95;;;;;;;18.72;49.70;97913.56;10417916;28;20052;-23
2022/01/16 18:55:14;;;;;;;8.45;7.53;;;;;;;18.68;49.42;97921.09;10399986;28;20038;-23
2022/01/16 19:00:16;;;;;;;11.77;7.93;;;;;;;18.67;49.81;97916.88;10394525;28;20038;-23
2022/01/16 19:05:17;;;;;;;10.35;8.38;;;;;;;18.66;49.86;97932.91;10387934;28;20492;-23
2022/01/16 19:10:18;;;;;;;11.07;8.10;;;;;;;18.65;49.68;97926.09;10376053;28;20061;-23
2022/01/16 19:15:18;;;;;;;11.27;8.38;;;;;;;18.67;49.54;97924.47;10378719;28;20120;-24
2022/01/16 19:20:19;;;;;;;9.90;7.77;;;;;;;18.64;49.62;97932.88;10398360;28;20045;-24
2022/01/16 19:25:23;;;;;;;9.48;7.40;;;;;;;18.67;49.55;97944.78;10392063;28;20052;-24
2022/01/16 19:30:24;;;;;;;8.48;7.57;;;;;;;18.62;49.40;97946.34;10409046;28;20416;-23
2022/01/16 19:35:26;;;;;;;9.57;6.82;;;;;;;18.65;49.40;97954.00;10395123;28;20045;-25
2022/01/16 19:40:27;;;;;;;10.13;7.63;;;;;;;18.61;49.68;97965.81;10391905;28;20508;-24
2022/01/16 19:45:30;;;;;;;12.50;6.97;;;;;;;18.64;49.32;97964.97;10395513;28;20038;-23
2022/01/16 19:50:31;;;;;;;9.48;7.43;;;;;;;18.63;49.34;97968.34;10390276;28;20069;-24
2022/01/16 19:55:31;;;;;;;13.80;7.18;;;;;;;18.64;49.27;97976.00;10392152;28;20109;-23
2022/01/16 20:00:32;;;;;;;10.13;7.75;;;;;;;18.63;48.87;97984.44;10397670;28;20029;-22
2022/01/16 20:05:32;;;;;;;10.00;6.97;;;;;;;18.60;48.90;97988.59;10390603;28;20037;-23
2022/01/16 20:10:33;;;;;;;9.52;6.88;;;;;;;18.63;49.02;97984.44;10391367;28;20113;-23
2022/01/16 20:15:34;;;;;;;8.17;6.33;;;;;;;18.66;48.82;97983.66;10395998;28;20048;-23
2022/01/16 20:20:38;;;;;;;8.05;6.72;;;;;;;18.64;48.94;97981.06;10394366;28;20290;-23
2022/01/16 20:25:39;;;;;;;7.75;6.72;;;;;;;18.63;48.97;97988.66;10398484;28;20034;-22
2022/01/16 20:30:40;;;;;;;9.18;7.35;;;;;;;18.66;49.06;97992.09;10390587;28;20408;-23
2022/01/16 20:35:41;;;;;;;7.85;6.65;;;;;;;18.66;48.98;97988.72;10394895;28;20048;-23
2022/01/16 20:40:48;;;;;;;7.45;6.38;;;;;;;18.57;49.15;97970.78;10395840;28;20033;-23
2022/01/16 20:45:49;;;;;;;8.93;6.90;;;;;;;18.63;49.04;97988.66;10390968;28;20045;-23
2022/01/16 20:50:51;;;;;;;7.07;6.13;;;;;;;18.57;49.22;97993.63;10389747;28;20041;-23
2022/01/16 20:55:51;;;;;;;8.73;6.57;;;;;;;18.60;49.42;98003.81;10384761;28;20041;-23
2022/01/16 21:00:52;;;;;;;8.60;6.80;;;;;;;18.64;49.37;98001.38;10391119;28;20416;-23
2022/01/16 21:05:52;;;;;;;9.67;7.13;;;;;;;18.65;49.47;98004.75;10396213;28;20466;-23
2022/01/16 21:10:55;;;;;;;10.53;7.60;;;;;;;18.65;49.63;98012.34;10405358;28;20037;-22
2022/01/16 21:15:55;;;;;;;9.18;7.18;;;;;;;18.66;49.63;98016.63;10410049;28;20824;-22
2022/01/16 21:20:56;;;;;;;8.40;6.60;;;;;;;18.65;49.85;98027.56;10411518;28;20037;-22
2022/01/16 21:25:58;;;;;;;13.48;7.85;;;;;;;18.62;49.86;98030.06;10422963;28;20033;-23
2022/01/16 21:30:59;;;;;;;8.30;5.72;;;;;;;18.59;50.04;98025.78;10450399;28;20072;-22
2022/01/16 21:35:59;;;;;;;10.50;6.72;;;;;;;18.56;50.21;98019.78;10412700;28;20060;-23
2022/01/16 21:41:01;;;;;;;9.05;6.53;;;;;;;18.56;50.03;98027.38;10407267;28;20095;-23
2022/01/16 21:46:02;;;;;;;8.98;6.70;;;;;;;18.54;50.34;98036.66;10408531;28;20360;-23
2022/01/16 21:51:03;;;;;;;8.65;5.80;;;;;;;18.40;50.37;98022.84;10434519;28;20120;-23
2022/01/16 21:56:06;;;;;;;11.63;6.28;;;;;;;18.53;50.49;98060.31;10431476;28;20352;-23
2022/01/16 22:01:07;;;;;;;8.90;5.88;;;;;;;18.53;50.49;98057.78;10408899;28;20120;-23
2022/01/16 22:06:07;;;;;;;11.55;6.22;;;;;;;18.51;50.75;98056.91;10411715;28;20403;-23
2022/01/16 22:11:09;;;;;;;10.02;6.32;;;;;;;18.50;50.75;98052.66;10425348;28;20561;-23
2022/01/16 22:16:10;;;;;;;8.32;5.57;;;;;;;18.50;50.50;98055.19;10435475;28;20583;-22
2022/01/16 22:21:11;;;;;;;7.10;5.72;;;;;;;18.53;50.78;98067.91;10437376;28;20115;-23
2022/01/16 22:26:12;;;;;;;6.60;5.18;;;;;;;18.52;50.89;98058.59;10437554;28;20496;-22
2022/01/16 22:31:14;;;;;;;8.68;5.72;;;;;;;18.51;51.12;98069.56;10416108;28;20059;-23
2022/01/16 22:36:15;;;;;;;8.25;5.30;;;;;;;18.51;50.85;98072.13;10439992;28;20086;-22
2022/01/16 22:41:15;;;;;;;7.90;5.43;;;;;;;18.41;50.96;98072.75;10437054;28;20099;-23
2022/01/16 22:46:16;;;;;;;5.80;5.15;;;;;;;18.50;51.06;98088.16;10415198;28;20591;-23
2022/01/16 22:51:16;;;;;;;8.02;5.68;;;;;;;18.50;51.03;98089.00;10445812;28;20037;-23
2022/01/16 22:56:17;;;;;;;7.63;6.00;;;;;;;18.52;51.02;98094.09;10435252;28;20044;-23
2022/01/16 23:01:17;;;;;;;7.23;4.90;;;;;;;18.50;51.04;98086.47;10415367;28;20377;-23
2022/01/16 23:06:18;;;;;;;8.18;4.85;;;;;;;18.50;51.03;98090.69;10415554;28;20071;-23
2022/01/16 23:11:18;;;;;;;6.20;5.10;;;;;;;18.55;51.01;98081.47;10433493;28;20064;-22
2022/01/16 23:16:19;;;;;;;7.88;4.60;;;;;;;18.51;51.23;98089.88;10437375;28;20276;-23
2022/01/16 23:21:19;;;;;;;6.80;5.30;;;;;;;18.51;51.09;98094.94;10447638;28;20083;-23
2022/01/16 23:26:19;;;;;;;8.17;4.43;;;;;;;18.51;51.05;98095.78;10433462;28;20732;-22
2022/01/16 23:31:20;;;;;;;6.47;5.23;;;;;;;18.49;51.17;98091.53;10414144;28;20279;-23
2022/01/16 23:36:20;;;;;;;7.23;4.43;;;;;;;18.49;51.13;98089.81;10439190;28;20302;-23
2022/01/16 23:41:21;;;;;;;6.10;5.10;;;;;;;18.52;51.07;98109.31;10434006;28;20296;-22
2022/01/16 23:46:23;;;;;;;7.20;5.10;;;;;;;18.45;51.04;98105.81;10412901;28;20362;-23
2022/01/16 23:51:24;;;;;;;8.20;5.43;;;;;;;18.51;50.88;98110.16;10446321;28;20037;-22
2022/01/16 23:56:25;;;;;;;5.65;4.22;;;;;;;18.49;51.10;98114.34;10432811;28;20112;-23
